Time;durP1;ratioP1;P1;durP2;ratioP2;P2;SDS_P1;SDS_P2;PMS_P1;PMS_P2;Temp;Humidity;BMP_temperature;BMP_pressure;BME280_temperature;BME280_humidity;BME280_pressure;Samples;Min_cycle;Max_cycle;Signal;HPM_P1;HPM_P2
2024/01/20 00:01:39;;;;;;;1.10;1.10;;;;;;;-10.37;100.00;98743.94;5097375;28;20054;-79
2024/01/20 00:04:07;;;;;;;0.95;0.95;;;;;;;-10.35;100.00;98742.88;5115185;28;20412;-79
2024/01/20 00:06:34;;;;;;;0.93;0.93;;;;;;;-10.27;100.00;98740.47;5115041;28;20044;-79
2024/01/20 00:09:01;;;;;;;1.10;1.10;;;;;;;-10.24;100.00;98744.63;5114567;28;20047;-79
2024/01/20 00:11:30;;;;;;;0.90;0.90;;;;;;;-10.22;100.00;98741.91;5114090;28;20393;-79
2024/01/20 00:13:57;;;;;;;1.05;1.05;;;;;;;-10.18;100.00;98741.50;5114126;28;20048;-79
2024/01/20 00:16:24;;;;;;;1.25;1.20;;;;;;;-10.18;100.00;98744.13;5114561;28;20142;-78
2024/01/20 00:18:54;;;;;;;1.00;1.00;;;;;;;-10.13;100.00;98743.78;5114815;28;20043;-79
2024/01/20 00:21:22;;;;;;;1.02;1.02;;;;;;;-10.05;100.00;98744.84;5114733;28;20078;-79
2024/01/20 00:23:50;;;;;;;1.00;1.00;;;;;;;-9.99;100.00;98734.88;5114567;28;20043;-79
2024/01/20 00:26:18;;;;;;;1.10;1.10;;;;;;;-9.95;100.00;98738.88;5096398;28;20389;-78
2024/01/20 00:28:45;;;;;;;1.00;1.00;;;;;;;-9.91;100.00;98737.69;5096647;28;20573;-79
2024/01/20 00:31:13;;;;;;;1.23;1.20;;;;;;;-9.89;100.00;98741.03;5092781;28;20055;-79
2024/01/20 00:33:43;;;;;;;1.00;1.00;;;;;;;-9.92;100.00;98744.72;5101188;28;20515;-80
2024/01/20 00:36:11;;;;;;;1.33;1.23;;;;;;;-9.95;100.00;98744.97;5096381;28;20571;-79
2024/01/20 00:38:42;;;;;;;1.00;1.00;;;;;;;-9.92;100.00;98751.72;5096690;28;20051;-79
2024/01/20 00:41:12;;;;;;;1.00;1.00;;;;;;;-9.81;100.00;98752.50;5113117;28;20056;-80
2024/01/20 00:43:40;;;;;;;0.85;0.85;;;;;;;-9.83;100.00;98758.81;5096017;28;20065;-78
2024/01/20 00:46:08;;;;;;;1.10;1.10;;;;;;;-9.82;100.00;98755.25;5096076;28;20058;-80
2024/01/20 00:48:35;;;;;;;1.08;1.08;;;;;;;-9.87;100.00;98744.34;5092458;28;20048;-79
2024/01/20 00:51:02;;;;;;;1.00;1.00;;;;;;;-9.91;100.00;98756.81;5094525;28;20477;-80
2024/01/20 00:53:29;;;;;;;0.95;0.95;;;;;;;-9.96;100.00;98760.72;5121539;27;20055;-79
2024/01/20 00:55:57;;;;;;;1.02;1.02;;;;;;;-9.96;100.00;98758.13;5116599;27;20412;-79
2024/01/20 00:58:24;;;;;;;0.90;0.90;;;;;;;-9.94;100.00;98751.81;5116568;27;20142;-79
2024/01/20 01:00:51;;;;;;;1.10;1.10;;;;;;;-9.90;100.00;98749.78;5134945;27;20065;-78
2024/01/20 01:03:20;;;;;;;1.00;1.00;;;;;;;-9.88;100.00;98745.28;5116380;27;20054;-79
2024/01/20 01:05:47;;;;;;;1.00;1.00;;;;;;;-9.81;100.00;98747.28;5134479;27;20054;-79
2024/01/20 01:08:14;;;;;;;0.95;0.95;;;;;;;-9.85;100.00;98745.03;5134709;27;20086;-78
2024/01/20 01:10:42;;;;;;;1.05;1.05;;;;;;;-9.83;100.00;98750.97;5134906;27;20078;-79
2024/01/20 01:13:09;;;;;;;1.40;1.30;;;;;;;-9.83;100.00;98769.25;5134790;27;20057;-79
2024/01/20 01:15:37;;;;;;;1.15;1.15;;;;;;;-9.85;100.00;98755.47;5134690;27;20074;-79
2024/01/20 01:18:04;;;;;;;1.13;1.13;;;;;;;-9.86;100.00;98769.50;5134610;27;20047;-79
2024/01/20 01:20:31;;;;;;;1.10;1.10;;;;;;;-9.91;100.00;98754.19;5134212;27;20047;-79
2024/01/20 01:22:59;;;;;;;1.02;1.02;;;;;;;-9.93;100.00;98752.66;5115603;27;20051;-79
2024/01/20 01:25:27;;;;;;;0.80;0.80;;;;;;;-9.91;100.00;98754.19;5134317;27;20412;-78
2024/01/20 01:27:55;;;;;;;1.10;1.10;;;;;;;-9.91;100.00;98742.91;5098795;27;20125;-79
2024/01/20 01:30:22;;;;;;;1.13;1.13;;;;;;;-10.04;100.00;98746.50;5133931;27;20051;-79
2024/01/20 01:32:49;;;;;;;1.00;1.00;;;;;;;-10.00;100.00;98754.94;5115537;27;20051;-79
2024/01/20 01:35:16;;;;;;;1.10;1.10;;;;;;;-9.97;100.00;98746.03;5116120;27;20047;-78
2024/01/20 01:37:44;;;;;;;1.08;1.08;;;;;;;-9.93;100.00;98742.22;5115496;27;20047;-78
2024/01/20 01:40:12;;;;;;;0.98;0.98;;;;;;;-9.91;100.00;98746.34;5133705;27;20095;-78
2024/01/20 01:42:42;;;;;;;1.23;1.20;;;;;;;-10.00;100.00;98741.03;5134011;27;20111;-78
2024/01/20 01:45:12;;;;;;;1.10;1.10;;;;;;;-9.99;100.00;98753.16;5133582;27;20047;-78
2024/01/20 01:47:39;;;;;;;1.02;1.02;;;;;;;-10.00;100.00;98748.84;5133973;27;20047;-79
2024/01/20 01:50:08;;;;;;;1.30;1.20;;;;;;;-10.09;100.00;98753.84;5094802;28;20050;-76
2024/01/20 01:52:36;;;;;;;1.05;1.05;;;;;;;-10.15;100.00;98754.34;5113214;28;20048;-77
2024/01/20 01:55:03;;;;;;;1.00;1.00;;;;;;;-9.95;100.00;98758.00;5095238;28;20046;-78
2024/01/20 01:57:31;;;;;;;1.10;1.10;;;;;;;-9.94;100.00;98749.22;5113261;28;20047;-78
2024/01/20 01:59:58;;;;;;;0.90;0.90;;;;;;;-9.92;100.00;98755.16;5095130;28;20465;-78
2024/01/20 02:02:25;;;;;;;1.05;1.05;;;;;;;-9.85;100.00;98745.03;5094666;28;20146;-78
2024/01/20 02:04:52;;;;;;;0.98;0.98;;;;;;;-9.78;100.00;98740.16;5095095;28;20047;-78
2024/01/20 02:07:20;;;;;;;1.10;1.10;;;;;;;-9.80;100.00;98742.88;5112939;28;20039;-79
2024/01/20 02:09:48;;;;;;;1.30;1.20;;;;;;;-9.75;100.00;98743.34;5095042;28;20462;-78
2024/01/20 02:12:15;;;;;;;1.00;1.00;;;;;;;-9.78;100.00;98738.38;5112778;28;20101;-78
2024/01/20 02:14:44;;;;;;;1.05;1.05;;;;;;;-9.75;100.00;98745.97;5095104;28;20393;-79
2024/01/20 02:17:11;;;;;;;1.02;1.02;;;;;;;-9.73;100.00;98736.22;5112554;28;20408;-78
2024/01/20 02:19:39;;;;;;;1.30;1.23;;;;;;;-9.68;100.00;98741.09;5112723;28;20397;-79
2024/01/20 02:22:16;;;;;;;1.05;1.05;;;;;;;-9.67;100.00;98746.19;5094808;28;20040;-79
2024/01/20 02:24:49;;;;;;;0.95;0.95;;;;;;;-9.71;100.00;98747.38;5112523;28;20054;-78
2024/01/20 02:27:18;;;;;;;1.10;1.10;;;;;;;-9.71;100.00;98749.19;5112309;28;20055;-78
2024/01/20 02:29:45;;;;;;;1.10;1.10;;;;;;;-9.73;100.00;98743.25;5112438;28;20052;-79
2024/01/20 02:32:13;;;;;;;1.15;1.15;;;;;;;-9.76;100.00;98744.31;5094678;28;20505;-78
2024/01/20 02:34:40;;;;;;;1.00;1.00;;;;;;;-9.75;100.00;98738.13;5115978;28;20081;-78
2024/01/20 02:37:08;;;;;;;1.23;1.20;;;;;;;-9.72;100.00;98750.09;5098408;28;20420;-79
2024/01/20 02:39:35;;;;;;;1.00;1.00;;;;;;;-9.76;100.00;98744.31;5081448;28;20078;-78
2024/01/20 02:42:02;;;;;;;1.00;1.00;;;;;;;-9.76;100.00;98741.69;5097953;28;20520;-79
2024/01/20 02:44:30;;;;;;;1.13;1.13;;;;;;;-9.77;100.00;98737.44;5095089;28;20409;-79
2024/01/20 02:46:57;;;;;;;0.88;0.88;;;;;;;-9.72;100.00;98742.28;5111253;27;20522;-78
2024/01/20 02:49:24;;;;;;;1.10;1.10;;;;;;;-9.68;100.00;98741.91;5136843;27;20051;-79
2024/01/20 02:51:52;;;;;;;0.80;0.80;;;;;;;-9.68;100.00;98741.91;5137460;27;20058;-79
2024/01/20 02:54:19;;;;;;;1.00;1.00;;;;;;;-9.64;100.00;98740.72;5136874;27;20063;-79
2024/01/20 02:56:46;;;;;;;1.00;1.00;;;;;;;-9.64;100.00;98742.50;5119123;27;20483;-78
2024/01/20 02:59:13;;;;;;;1.20;1.20;;;;;;;-9.57;100.00;98755.91;5136727;27;20047;-78
2024/01/20 03:01:41;;;;;;;1.00;1.00;;;;;;;-9.60;99.97;98754.34;5136793;27;20054;-79
2024/01/20 03:04:09;;;;;;;1.00;1.00;;;;;;;-9.64;99.93;98764.25;5136887;27;20119;-79
2024/01/20 03:06:36;;;;;;;1.08;1.08;;;;;;;-9.65;99.94;98770.41;5118946;27;20142;-77
2024/01/20 03:09:04;;;;;;;0.98;0.98;;;;;;;-9.69;99.90;98774.22;5136487;27;20127;-79
2024/01/20 03:11:32;;;;;;;1.00;1.00;;;;;;;-9.67;99.96;98768.84;5127573;27;20053;-79
2024/01/20 03:13:59;;;;;;;1.08;1.08;;;;;;;-9.67;99.87;98788.00;5122893;27;20047;-77
2024/01/20 03:16:26;;;;;;;1.20;1.20;;;;;;;-9.74;99.91;98784.22;5121408;27;20044;-78
2024/01/20 03:18:54;;;;;;;1.02;1.02;;;;;;;-9.82;99.87;98789.22;5134322;27;20407;-79
2024/01/20 03:21:21;;;;;;;0.90;0.90;;;;;;;-9.82;99.97;98794.44;5133768;27;20051;-79
2024/01/20 03:23:49;;;;;;;1.00;1.00;;;;;;;-9.79;100.00;98796.81;5133900;27;20539;-78
2024/01/20 03:26:16;;;;;;;0.82;0.82;;;;;;;-9.77;99.77;98800.13;5115408;27;20138;-78
2024/01/20 03:28:43;;;;;;;1.10;1.10;;;;;;;-9.82;100.00;98784.00;5043796;28;20054;-78
2024/01/20 03:31:10;;;;;;;0.95;0.95;;;;;;;-9.80;99.87;98779.44;5133839;27;20051;-79
2024/01/20 03:33:37;;;;;;;1.00;1.00;;;;;;;-9.77;99.99;98787.06;5135367;27;20079;-79
2024/01/20 03:36:05;;;;;;;1.10;1.10;;;;;;;-9.75;99.99;98779.09;5117592;27;20059;-78
2024/01/20 03:38:32;;;;;;;1.10;1.10;;;;;;;-9.74;99.74;98778.97;5117331;27;20069;-79
2024/01/20 03:41:00;;;;;;;1.10;1.10;;;;;;;-9.73;99.75;98783.25;5117622;27;20047;-78
2024/01/20 03:43:27;;;;;;;0.90;0.90;;;;;;;-9.72;99.94;98782.31;5117723;27;20058;-78
2024/01/20 03:45:55;;;;;;;0.90;0.90;;;;;;;-9.74;99.84;98788.59;5108941;27;20043;-79
2024/01/20 03:48:22;;;;;;;1.17;1.17;;;;;;;-9.75;99.94;98787.75;5129981;27;20048;-79
2024/01/20 03:50:51;;;;;;;0.93;0.93;;;;;;;-9.76;100.00;98780.88;5111608;27;20508;-77
2024/01/20 03:53:18;;;;;;;1.00;1.00;;;;;;;-9.76;100.00;98786.09;5131504;27;20043;-79
2024/01/20 03:55:45;;;;;;;0.90;0.90;;;;;;;-9.76;100.00;98790.50;5130677;27;20462;-77
2024/01/20 03:58:14;;;;;;;1.10;1.10;;;;;;;-9.75;100.00;98798.19;5125117;27;20100;-79
2024/01/20 04:00:43;;;;;;;0.90;0.90;;;;;;;-9.73;100.00;98795.47;5129685;27;20047;-79
2024/01/20 04:03:10;;;;;;;1.20;1.17;;;;;;;-9.77;100.00;98802.75;5135699;27;20047;-78
2024/01/20 04:05:39;;;;;;;1.08;1.08;;;;;;;-9.81;100.00;98798.69;5135536;27;20047;-79
2024/01/20 04:08:07;;;;;;;0.93;0.93;;;;;;;-9.82;100.00;98804.88;5135364;27;20043;-79
2024/01/20 04:10:35;;;;;;;1.00;1.00;;;;;;;-9.87;100.00;98809.63;5135640;27;20499;-79
2024/01/20 04:13:03;;;;;;;0.98;0.98;;;;;;;-9.88;100.00;98819.22;5117510;27;20407;-78
2024/01/20 04:15:30;;;;;;;1.20;1.17;;;;;;;-9.87;100.00;98823.50;5128493;27;20035;-79
2024/01/20 04:17:58;;;;;;;1.17;1.17;;;;;;;-9.89;100.00;98819.38;5114941;27;20559;-78
2024/01/20 04:20:25;;;;;;;1.13;1.13;;;;;;;-9.90;100.00;98815.06;5139069;27;20051;-78
2024/01/20 04:22:52;;;;;;;0.90;0.90;;;;;;;-9.96;100.00;98816.38;5144375;27;20043;-79
2024/01/20 04:25:19;;;;;;;1.10;1.10;;;;;;;-9.96;100.00;98821.59;5139525;27;20039;-79
2024/01/20 04:27:47;;;;;;;1.13;1.13;;;;;;;-9.97;99.77;98819.13;5105118;27;20050;-79
2024/01/20 04:30:16;;;;;;;0.90;0.90;;;;;;;-9.99;99.75;98819.25;5143874;27;20055;-79
2024/01/20 04:32:43;;;;;;;1.00;1.00;;;;;;;-10.01;99.48;98813.31;5144163;27;20492;-78
2024/01/20 04:35:10;;;;;;;1.10;1.10;;;;;;;-10.05;99.53;98815.34;5107011;27;20053;-77
2024/01/20 04:37:39;;;;;;;1.17;1.17;;;;;;;-10.12;99.66;98810.72;5113514;27;20436;-76
2024/01/20 04:40:06;;;;;;;1.00;1.00;;;;;;;-10.07;99.66;98819.00;5104019;27;20069;-79
2024/01/20 04:42:34;;;;;;;1.23;1.17;;;;;;;-10.14;99.75;98821.25;5116690;27;20100;-79
2024/01/20 04:45:04;;;;;;;1.00;1.00;;;;;;;-10.20;99.86;98819.13;5098323;27;20035;-78
2024/01/20 04:47:34;;;;;;;1.00;1.00;;;;;;;-10.24;99.94;98822.91;5135635;27;20043;-79
2024/01/20 04:50:02;;;;;;;1.05;1.05;;;;;;;-10.17;99.95;98828.50;5117115;27;20092;-78
2024/01/20 04:52:29;;;;;;;1.00;1.00;;;;;;;-10.16;100.00;98830.97;5118185;27;20044;-79
2024/01/20 04:54:59;;;;;;;1.00;1.00;;;;;;;-10.13;99.67;98835.13;5124243;27;20047;-80
2024/01/20 04:57:26;;;;;;;1.00;1.00;;;;;;;-10.16;99.71;98830.97;5116960;27;20043;-79
2024/01/20 04:59:53;;;;;;;1.10;1.10;;;;;;;-10.13;99.86;98835.13;5128350;27;20461;-78
2024/01/20 05:02:22;;;;;;;0.93;0.93;;;;;;;-10.12;99.87;98835.03;5124610;27;20066;-78
2024/01/20 05:04:49;;;;;;;0.95;0.95;;;;;;;-10.16;99.95;98836.19;5121972;27;20042;-78
2024/01/20 05:07:16;;;;;;;0.90;0.90;;;;;;;-10.20;100.00;98834.78;5130551;27;20133;-79
2024/01/20 05:09:44;;;;;;;1.10;1.10;;;;;;;-10.20;100.00;98831.31;5132963;27;20047;-80
2024/01/20 05:12:11;;;;;;;1.00;1.00;;;;;;;-10.23;100.00;98836.78;5116377;27;20054;-78
2024/01/20 05:14:41;;;;;;;1.00;1.00;;;;;;;-10.14;100.00;98842.13;5134031;27;20051;-77
2024/01/20 05:17:09;;;;;;;0.98;0.98;;;;;;;-10.07;100.00;98845.94;5116017;27;20043;-78
2024/01/20 05:19:39;;;;;;;1.00;1.00;;;;;;;-10.01;100.00;98846.41;5133742;27;20051;-78
2024/01/20 05:22:07;;;;;;;1.08;1.08;;;;;;;-9.99;99.99;98842.75;5123142;27;20044;-76
2024/01/20 05:24:34;;;;;;;0.90;0.90;;;;;;;-10.03;99.72;98836.91;5092196;28;20067;-81
2024/01/20 05:27:02;;;;;;;1.00;1.00;;;;;;;-10.04;99.61;98847.47;5077179;28;20073;-78
2024/01/20 05:29:30;;;;;;;1.20;1.20;;;;;;;-10.03;99.74;98855.19;5112754;28;20061;-78
2024/01/20 05:31:57;;;;;;;1.00;1.00;;;;;;;-10.01;99.46;98855.06;5105000;28;20050;-76
2024/01/20 05:34:25;;;;;;;1.08;1.08;;;;;;;-10.01;99.67;98867.31;5108273;28;20561;-78
2024/01/20 05:36:52;;;;;;;1.00;1.00;;;;;;;-10.06;99.37;98852.00;5107094;28;20047;-78
2024/01/20 05:39:19;;;;;;;1.00;1.00;;;;;;;-10.11;99.46;98857.56;5082153;28;20081;-76
2024/01/20 05:41:47;;;;;;;1.10;1.10;;;;;;;-10.11;99.56;98865.38;5109435;28;20047;-77
2024/01/20 05:44:14;;;;;;;1.00;1.00;;;;;;;-10.15;99.61;98870.94;5094649;28;20047;-78
2024/01/20 05:46:42;;;;;;;0.90;0.90;;;;;;;-10.21;99.77;98868.81;5112891;28;20052;-78
2024/01/20 05:49:10;;;;;;;1.08;1.08;;;;;;;-10.27;99.85;98862.28;5089165;28;20043;-79
2024/01/20 05:51:37;;;;;;;1.17;1.17;;;;;;;-10.24;100.00;98872.50;5108032;28;20040;-78
2024/01/20 05:54:04;;;;;;;1.10;1.10;;;;;;;-10.21;100.00;98869.66;5112001;28;20047;-78
2024/01/20 05:56:32;;;;;;;1.00;1.00;;;;;;;-10.20;100.00;98866.09;5112702;28;20047;-77
2024/01/20 05:58:59;;;;;;;1.15;1.15;;;;;;;-10.19;100.00;98870.38;5112948;28;20442;-79
2024/01/20 06:01:26;;;;;;;1.00;1.00;;;;;;;-10.20;100.00;98871.31;5112642;28;20055;-78
2024/01/20 06:03:54;;;;;;;1.10;1.10;;;;;;;-10.24;100.00;98864.66;5077899;28;20458;-78
2024/01/20 06:06:21;;;;;;;0.90;0.90;;;;;;;-10.25;100.00;98866.44;5094380;28;20047;-79
2024/01/20 06:08:49;;;;;;;1.00;1.00;;;;;;;-10.19;100.00;98866.94;5094628;28;20054;-78
2024/01/20 06:11:16;;;;;;;1.00;1.00;;;;;;;-10.15;100.00;98870.94;5112855;28;20059;-78
2024/01/20 06:13:43;;;;;;;1.02;1.02;;;;;;;-10.15;100.00;98870.94;5094328;28;20055;-78
2024/01/20 06:16:11;;;;;;;1.00;1.00;;;;;;;-10.10;100.00;98868.81;5077699;28;20055;-79
2024/01/20 06:18:39;;;;;;;1.00;1.00;;;;;;;-10.11;100.00;98865.38;5094331;28;20154;-77
2024/01/20 06:21:06;;;;;;;1.00;1.00;;;;;;;-10.05;100.00;98866.69;5112353;28;20058;-78
2024/01/20 06:23:34;;;;;;;0.93;0.93;;;;;;;-10.00;100.00;98875.03;5112325;28;20063;-79
2024/01/20 06:26:02;;;;;;;1.13;1.13;;;;;;;-9.99;100.00;98881.09;5094619;28;20043;-77
2024/01/20 06:28:30;;;;;;;0.85;0.85;;;;;;;-10.02;100.00;98884.75;5094271;28;20039;-79
2024/01/20 06:30:57;;;;;;;1.10;1.10;;;;;;;-9.97;100.00;98879.19;5112223;28;20054;-78
2024/01/20 06:33:24;;;;;;;1.17;1.17;;;;;;;-9.96;100.00;98886.88;5077479;28;20416;-79
2024/01/20 06:35:52;;;;;;;1.10;1.10;;;;;;;-9.90;100.00;98883.81;5112441;28;20048;-79
2024/01/20 06:38:19;;;;;;;0.90;0.90;;;;;;;-9.84;100.00;98887.72;5112177;28;20044;-79
2024/01/20 06:40:46;;;;;;;1.02;1.02;;;;;;;-9.87;99.84;98886.19;5093566;28;20526;-78
2024/01/20 06:43:14;;;;;;;0.93;0.93;;;;;;;-9.89;99.70;98892.47;5111556;28;20139;-79
2024/01/20 06:45:42;;;;;;;1.10;1.10;;;;;;;-9.95;99.76;98885.97;5108465;28;20524;-79
2024/01/20 06:48:10;;;;;;;1.10;1.10;;;;;;;-9.86;99.84;98900.06;5094071;28;20499;-78
2024/01/20 06:50:43;;;;;;;1.45;1.35;;;;;;;-9.78;100.00;98892.47;5093662;28;20542;-78
2024/01/20 06:53:12;;;;;;;0.90;0.90;;;;;;;-9.67;99.64;98892.50;5111969;28;20055;-78
2024/01/20 06:55:39;;;;;;;1.00;1.00;;;;;;;-9.62;99.30;98898.19;5076808;28;20439;-79
2024/01/20 06:58:07;;;;;;;1.02;1.02;;;;;;;-9.56;99.08;98901.28;5093673;28;20052;-79
2024/01/20 07:00:34;;;;;;;1.17;1.17;;;;;;;-9.54;99.05;98904.56;5093863;28;20055;-79
2024/01/20 07:03:03;;;;;;;1.00;1.00;;;;;;;-9.46;98.85;98904.81;5094183;28;20496;-79
2024/01/20 07:05:31;;;;;;;1.08;1.08;;;;;;;-9.43;98.51;98907.19;5111822;28;20051;-78
2024/01/20 07:08:02;;;;;;;1.00;1.00;;;;;;;-9.35;98.14;98922.28;5099855;28;20049;-80
2024/01/20 07:10:36;;;;;;;1.08;1.08;;;;;;;-9.26;98.10;98921.56;5087805;28;20508;-79
2024/01/20 07:13:05;;;;;;;1.02;1.02;;;;;;;-9.20;97.96;98914.03;5067554;28;20055;-78
2024/01/20 07:15:38;;;;;;;0.80;0.80;;;;;;;-9.07;97.66;98919.13;5088738;28;20052;-78
2024/01/20 07:18:15;;;;;;;0.95;0.95;;;;;;;-9.03;97.53;98923.19;5068120;28;20420;-77
2024/01/20 07:20:51;;;;;;;0.90;0.90;;;;;;;-8.98;97.42;98907.94;5073478;28;20053;-78
2024/01/20 07:23:58;;;;;;;1.10;1.10;;;;;;;-8.86;97.01;98911.38;5100107;27;20055;-78
2024/01/20 07:37:28;;;;;;;1.17;1.17;;;;;;;-8.78;95.59;98927.28;5043564;28;20429;-78
2024/01/20 07:40:06;;;;;;;1.00;1.00;;;;;;;-8.76;95.60;98930.59;5008551;28;20092;-78
2024/01/20 07:42:46;;;;;;;1.10;1.10;;;;;;;-8.73;95.65;98932.97;4995055;28;20045;-77
2024/01/20 07:45:20;;;;;;;1.02;1.02;;;;;;;-8.75;95.66;98929.63;5033760;28;20053;-78
2024/01/20 07:47:48;;;;;;;1.10;1.10;;;;;;;-8.74;95.84;98928.66;5037269;28;20061;-78
2024/01/20 07:50:15;;;;;;;1.10;1.10;;;;;;;-8.70;95.88;98921.41;5016814;28;21197;-81
2024/01/20 07:52:44;;;;;;;0.98;0.98;;;;;;;-8.64;95.76;98927.94;4993900;28;20050;-79
2024/01/20 07:55:12;;;;;;;1.17;1.17;;;;;;;-8.63;95.64;98926.97;5008688;28;20463;-79
2024/01/20 07:57:39;;;;;;;1.08;1.08;;;;;;;-8.65;95.77;98923.66;5012047;28;20052;-79
2024/01/20 08:00:09;;;;;;;1.00;1.00;;;;;;;-8.64;95.76;98920.09;4991108;28;20491;-79
2024/01/20 08:02:39;;;;;;;1.13;1.13;;;;;;;-8.63;95.72;98927.81;4975050;28;20113;-80
2024/01/20 08:05:06;;;;;;;1.10;1.10;;;;;;;-8.66;95.76;98932.47;5012533;28;20050;-79
2024/01/20 08:07:33;;;;;;;1.00;1.00;;;;;;;-8.63;95.81;98937.44;5004428;28;20391;-78
2024/01/20 08:10:01;;;;;;;1.20;1.20;;;;;;;-8.65;95.69;98939.38;5009949;28;20052;-78
2024/01/20 08:12:29;;;;;;;0.90;0.90;;;;;;;-8.60;95.88;98938.03;5032614;28;20241;-78
2024/01/20 08:14:57;;;;;;;1.00;1.00;;;;;;;-8.55;95.87;98928.03;5037691;28;20482;-79
2024/01/20 08:17:32;;;;;;;1.00;1.00;;;;;;;-8.54;95.58;98923.59;5025106;28;20411;-77
2024/01/20 08:20:00;;;;;;;1.10;1.10;;;;;;;-8.49;95.58;98923.25;5036711;28;20095;-78
2024/01/20 08:22:28;;;;;;;1.17;1.17;;;;;;;-8.49;95.36;98931.09;4968045;28;20053;-79
2024/01/20 08:24:59;;;;;;;1.08;1.08;;;;;;;-8.46;95.18;98934.28;5030992;28;20081;-78
2024/01/20 08:27:29;;;;;;;1.10;1.10;;;;;;;-8.30;95.25;98939.06;5002124;28;20502;-78
2024/01/20 08:29:58;;;;;;;1.27;1.20;;;;;;;-8.20;94.89;98944.34;5031712;28;20041;-78
2024/01/20 08:32:26;;;;;;;1.00;1.00;;;;;;;-8.06;94.92;98936.19;5033683;28;20045;-79
2024/01/20 08:34:53;;;;;;;0.98;0.98;;;;;;;-7.95;94.47;98938.75;5014114;28;20096;-80
2024/01/20 08:37:23;;;;;;;1.10;1.10;;;;;;;-7.90;93.71;98936.59;4997635;28;20153;-79
2024/01/20 08:39:51;;;;;;;1.05;1.05;;;;;;;-7.84;93.82;98937.84;5004080;28;20045;-79
2024/01/20 08:42:19;;;;;;;1.10;1.10;;;;;;;-7.76;93.56;98937.22;4988296;28;20057;-79
2024/01/20 08:44:47;;;;;;;1.05;1.05;;;;;;;-7.68;93.26;98940.00;5002024;28;20050;-79
2024/01/20 08:47:55;;;;;;;1.05;1.05;;;;;;;-7.55;93.16;98937.16;4998740;28;20065;-79
2024/01/20 08:50:59;;;;;;;;;;;;;;;-7.48;92.80;98940.94;4995695;28;20046;-79
2024/01/20 08:54:08;;;;;;;1.20;1.20;;;;;;;-7.37;92.42;98940.81;4972322;28;19925;-82
2024/01/20 08:56:49;;;;;;;1.10;1.10;;;;;;;-7.37;91.86;98927.72;4966341;28;20057;-80
2024/01/20 08:59:31;;;;;;;0.90;0.90;;;;;;;-7.12;92.17;98934.28;4971366;28;20047;-82
2024/01/20 09:02:08;;;;;;;1.10;1.10;;;;;;;-7.16;91.89;98922.41;4988578;28;20500;-81
2024/01/20 09:04:41;;;;;;;1.02;1.02;;;;;;;-6.82;91.74;98946.50;4991619;28;20050;-81
2024/01/20 09:07:18;;;;;;;1.17;1.17;;;;;;;-6.62;91.24;98926.38;4977264;28;20078;-80
2024/01/20 09:10:12;;;;;;;1.20;1.20;;;;;;;-6.34;90.17;98942.28;4996311;28;20042;-79
2024/01/20 09:12:51;;;;;;;1.08;1.08;;;;;;;-6.25;89.32;98946.72;4968670;28;20045;-80
2024/01/20 09:16:13;;;;;;;1.27;1.25;;;;;;;-6.11;88.76;98932.31;4986747;28;20079;-79
2024/01/20 09:19:52;;;;;;;1.13;1.13;;;;;;;-5.80;88.25;98946.06;4992570;28;20042;-80
2024/01/20 09:22:56;;;;;;;1.40;1.30;;;;;;;-6.02;87.51;98935.91;5004239;28;20054;-79
2024/01/20 09:25:34;;;;;;;1.00;1.00;;;;;;;-6.06;87.79;98940.59;4972095;28;20054;-80
2024/01/20 09:28:22;;;;;;;1.27;1.20;;;;;;;-6.25;87.64;98959.84;4997760;28;20059;-79
2024/01/20 09:31:00;;;;;;;1.08;1.08;;;;;;;-6.27;88.36;98948.66;4991711;28;20057;-80
2024/01/20 09:33:45;;;;;;;1.25;1.20;;;;;;;-6.28;88.37;98948.78;4962426;28;20069;-79
2024/01/20 09:36:30;;;;;;;1.17;1.17;;;;;;;-6.27;88.78;98956.53;4989123;28;20079;-80
2024/01/20 09:39:02;;;;;;;0.98;0.98;;;;;;;-6.37;88.96;98963.56;4961684;28;20562;-79
2024/01/20 09:41:32;;;;;;;1.30;1.20;;;;;;;-6.43;89.72;98953.59;4959856;28;20137;-81
2024/01/20 09:44:02;;;;;;;0.98;0.98;;;;;;;-6.51;89.86;98937.72;4973059;28;20056;-81
2024/01/20 09:46:33;;;;;;;1.17;1.15;;;;;;;-6.44;89.97;98958.03;4971226;28;20046;-81
2024/01/20 09:49:00;;;;;;;0.98;0.98;;;;;;;-6.58;90.26;98955.81;4988657;28;20050;-81
2024/01/20 09:51:28;;;;;;;0.93;0.93;;;;;;;-6.51;90.15;98967.41;4999377;28;20054;-82
2024/01/20 09:54:13;;;;;;;;;;;;;;;-6.57;90.13;98968.78;4995253;28;20105;-82
2024/01/20 09:56:43;;;;;;;0.95;0.95;;;;;;;-6.61;90.01;98967.44;4987643;28;20422;-81
2024/01/20 09:59:18;;;;;;;0.73;0.73;;;;;;;-6.59;90.50;98969.91;4991263;28;20445;-80
2024/01/20 10:01:46;;;;;;;1.05;1.05;;;;;;;-6.46;90.72;98972.25;4995585;28;20392;-81
2024/01/20 10:04:17;;;;;;;1.10;1.10;;;;;;;-6.37;90.71;98966.19;4957255;28;20515;-80
2024/01/20 10:06:54;;;;;;;1.00;1.00;;;;;;;-6.27;91.03;98964.41;4984633;28;20128;-80
2024/01/20 10:09:22;;;;;;;1.25;1.20;;;;;;;-6.29;90.82;98960.25;4967184;28;20058;-81
2024/01/20 10:11:51;;;;;;;1.00;1.00;;;;;;;-6.22;90.55;98970.06;4979635;28;20049;-79
2024/01/20 10:14:29;;;;;;;1.30;1.20;;;;;;;-6.16;90.52;98966.88;4994378;28;20961;-78
2024/01/20 10:17:36;;;;;;;1.20;1.20;;;;;;;-6.11;90.35;98972.53;4976355;28;20412;-80
2024/01/20 10:20:19;;;;;;;0.98;0.98;;;;;;;-6.04;90.11;98980.72;4910929;29;20076;-80
2024/01/20 10:23:03;;;;;;;0.98;0.98;;;;;;;-6.16;89.96;98981.81;4917965;29;20103;-80
2024/01/20 10:25:41;;;;;;;0.98;0.98;;;;;;;-6.19;90.27;98971.59;4932676;29;20055;-81
2024/01/20 10:28:17;;;;;;;1.00;1.00;;;;;;;-6.03;89.87;98987.63;4901809;29;20234;-80
2024/01/20 10:30:54;;;;;;;1.00;1.00;;;;;;;-6.09;89.59;98995.25;4919866;29;20158;-80
2024/01/20 10:33:40;;;;;;;0.90;0.90;;;;;;;-6.07;89.61;98980.16;4919815;29;20118;-80
2024/01/20 10:36:27;;;;;;;0.95;0.95;;;;;;;-5.98;89.81;98984.56;4919064;29;20060;-80
2024/01/20 10:39:25;;;;;;;1.00;1.00;;;;;;;-5.89;89.69;98986.34;4926219;29;20062;-80
2024/01/20 10:42:20;;;;;;;1.30;1.20;;;;;;;-5.74;89.43;98982.31;4925048;29;20048;-81
2024/01/20 10:45:20;;;;;;;1.30;1.20;;;;;;;-5.74;89.75;98976.22;4893939;29;20148;-80
2024/01/20 10:48:15;;;;;;;1.38;1.27;;;;;;;-5.74;88.84;98987.56;4876114;29;20053;-81
2024/01/20 10:51:22;;;;;;;1.23;1.20;;;;;;;-5.76;89.24;98980.78;4876013;29;20554;-81
2024/01/20 10:54:08;;;;;;;1.00;1.00;;;;;;;-5.82;89.07;98973.44;4821682;29;20057;-81
2024/01/20 10:56:54;;;;;;;1.00;1.00;;;;;;;-5.84;88.75;98978.03;4830837;29;20057;-81
2024/01/20 10:59:36;;;;;;;1.05;1.05;;;;;;;-5.82;89.26;98983.97;4812080;29;20056;-82
2024/01/20 11:02:12;;;;;;;1.10;1.10;;;;;;;-5.78;89.79;98980.09;4836866;29;20718;-81
2024/01/20 11:04:55;;;;;;;1.00;1.00;;;;;;;-5.84;89.32;98978.03;4810361;29;20413;-80
2024/01/20 11:07:28;;;;;;;1.10;1.10;;;;;;;-5.95;89.93;98969.38;4823387;29;20058;-80
2024/01/20 11:10:27;;;;;;;0.90;0.90;;;;;;;-5.87;89.31;98981.78;4828648;29;20054;-81
2024/01/20 11:13:11;;;;;;;1.10;1.10;;;;;;;-5.74;89.33;98987.56;4837078;29;20141;-80
2024/01/20 11:16:11;;;;;;;;;;;;;;;;;;;;;
2024/01/20 11:19:12;;;;;;;0.90;0.90;;;;;;;-5.90;88.67;98992.56;4823971;29;20118;-80
2024/01/20 11:22:03;;;;;;;1.10;1.10;;;;;;;-6.07;88.99;98990.69;4844569;29;20047;-81
2024/01/20 11:24:49;;;;;;;1.10;1.10;;;;;;;-6.14;89.78;99000.91;4895118;29;20085;-80
2024/01/20 11:27:25;;;;;;;0.93;0.93;;;;;;;-6.00;90.25;99010.16;4915548;29;20593;-80
2024/01/20 11:30:24;;;;;;;0.88;0.88;;;;;;;-5.98;90.05;99010.84;4919946;28;20046;-79
2024/01/20 11:33:10;;;;;;;0.93;0.93;;;;;;;-5.95;90.27;99002.69;5004099;28;20136;-79
2024/01/20 11:36:07;;;;;;;0.98;0.98;;;;;;;-5.92;90.48;99002.41;4993817;28;20062;-79
2024/01/20 11:39:05;;;;;;;1.10;1.10;;;;;;;-5.72;90.16;99019.81;4981271;28;20436;-80
2024/01/20 11:41:42;;;;;;;0.90;0.90;;;;;;;-5.70;89.64;99017.03;4987334;28;20058;-80
2024/01/20 11:44:23;;;;;;;1.00;1.00;;;;;;;-5.70;89.20;99022.28;4976206;28;20046;-79
2024/01/20 11:47:07;;;;;;;0.90;0.90;;;;;;;-5.76;89.18;99023.69;4944022;28;20170;-80
2024/01/20 11:49:47;;;;;;;0.93;0.93;;;;;;;-5.75;89.45;99025.31;4965534;28;20104;-80
2024/01/20 11:52:35;;;;;;;0.93;0.93;;;;;;;-5.64;89.18;99023.53;4981219;28;20419;-79
2024/01/20 11:55:10;;;;;;;1.00;1.00;;;;;;;-5.64;88.89;99023.53;4986814;28;20053;-80
2024/01/20 11:57:48;;;;;;;0.82;0.82;;;;;;;-5.76;88.90;99020.22;4986558;28;20148;-80
2024/01/20 12:00:34;;;;;;;;;;;;;;;-5.62;88.87;99032.09;4967915;28;20061;-79
2024/01/20 12:03:39;;;;;;;1.05;1.05;;;;;;;-5.81;88.43;99001.41;4984008;28;19970;-80
2024/01/20 12:06:25;;;;;;;1.23;1.17;;;;;;;-5.62;88.18;99037.34;4997809;28;20376;-80